Address 0x5b2daa876cfbb4fe17a7b06795730423aa4717ca 1

 
 
Txn Hash Method
Block
From
To
Value [Txn Fee]
0xa108101e25b3e59aa931f17a09154bd395e46eb4f80bf5307160d029ca74d172Claim299388042022-06-24 8:56:077 days 1 hr ago0x5b2daa876cfbb4fe17a7b06795730423aa4717caOUT 0x28caa843cb577d892a8b6ec3f24aa682ed22be680 MATIC0.004002621977 33.000428539
0x4959f076cb0fedd6766f990a16ea1b6c5c0e1f815d14eaf1acb36d10a53f8494Deposit From296721612022-06-17 9:50:4014 days 57 mins ago0x5b2daa876cfbb4fe17a7b06795730423aa4717caOUT 0x28caa843cb577d892a8b6ec3f24aa682ed22be680 MATIC0.005594457002 33.000000016
0x1f71be7ba73a13658ee4d1fbc9dadf96fb0bcae521e62047682ec01fd6714041Claim296721252022-06-17 9:49:2414 days 58 mins ago0x5b2daa876cfbb4fe17a7b06795730423aa4717caOUT 0x57eb1b68f2ae0f77bf54f5ee6133be80d6381d1b0 MATIC0.003919740002 33.000000023
0xd8ae8b0df622015e90866d975fada47c0425fcdbf1fa3bfe20e6cabf78b185efClaim296721122022-06-17 9:48:5814 days 58 mins ago0x5b2daa876cfbb4fe17a7b06795730423aa4717caOUT 0x28caa843cb577d892a8b6ec3f24aa682ed22be680 MATIC0.004002570002 33.000000024
0x1ab6a1d39df80b84c6a6de47ade695a5566dc26dead8799fd673a4b8a9e63a6fDeposit From296333142022-06-16 10:10:1715 days 37 mins ago0x5b2daa876cfbb4fe17a7b06795730423aa4717caOUT 0x28caa843cb577d892a8b6ec3f24aa682ed22be680 MATIC0.00571981894 33.73947195
0xda469747266991a88964be249205988bcf14a65f40e0dc0a3d6308ea9b9b531bClaim296332802022-06-16 10:09:0915 days 38 mins ago0x5b2daa876cfbb4fe17a7b06795730423aa4717caOUT 0x28caa843cb577d892a8b6ec3f24aa682ed22be680 MATIC0.004092370644 33.740379623
0x70e9899c8370fc43c25dff9a76d09856b15806add31012d06bab91cacf0dc1a1Claim296332732022-06-16 10:08:3915 days 39 mins ago0x5b2daa876cfbb4fe17a7b06795730423aa4717caOUT 0x57eb1b68f2ae0f77bf54f5ee6133be80d6381d1b0 MATIC0.004007621579 33.739868488
0x3c1317877d2f94d010459787b8703122938f52049a4d5aba65899444287b67f3Transfer296332262022-06-16 10:05:3115 days 42 mins ago0x5b2daa876cfbb4fe17a7b06795730423aa4717caOUT0xe56815ddddfcc733b83cf4b9fd156b50cc4dd43d1 MATIC0.000630003508 30.000167053
0x2b57039f8055b225604a1b4eaf44039c0aecffe2461dd90312299e0c8b74bdd3Deposit From295938692022-06-15 10:09:1816 days 38 mins ago0x5b2daa876cfbb4fe17a7b06795730423aa4717caOUT 0x28caa843cb577d892a8b6ec3f24aa682ed22be680 MATIC0.007579938193 44.711749571
0xcc5c68926710a979c30d78a9fc2853e0bf7f75dcc94ef09d727011c9ff7e7d45Claim295938402022-06-15 10:08:1616 days 39 mins ago0x5b2daa876cfbb4fe17a7b06795730423aa4717caOUT 0x57eb1b68f2ae0f77bf54f5ee6133be80d6381d1b0 MATIC0.005579858401 46.976413553
0x4c610a9f0fab9094e4aca21df0c9d61e51837ee81ce81638dadabeb98bb364a5Claim295938182022-06-15 10:07:3216 days 40 mins ago0x5b2daa876cfbb4fe17a7b06795730423aa4717caOUT 0x28caa843cb577d892a8b6ec3f24aa682ed22be680 MATIC0.006569891117 54.16679955
0x3a80cb56b92f2170c4101c0e0a42a4f211bce9b1987830af8d294ac6003a82c3Deposit From295118822022-06-13 9:19:2618 days 1 hr ago0x5b2daa876cfbb4fe17a7b06795730423aa4717caOUT 0x28caa843cb577d892a8b6ec3f24aa682ed22be680 MATIC0.260951417766 1,539.273031556
0x913725ce0b8660441c0bed1c06c6f2d8693a8ee0fe09afbef095e65b1b2544f8Claim295112032022-06-13 8:56:0418 days 1 hr ago0x5b2daa876cfbb4fe17a7b06795730423aa4717caOUT 0x28caa843cb577d892a8b6ec3f24aa682ed22be680 MATIC0.268373549762 2,212.66015139
0x623ee4ed908397957c3283fa96a0d34d241778721ecf5472a4c5e891aa6b50b8Claim295110982022-06-13 8:52:2618 days 1 hr ago0x5b2daa876cfbb4fe17a7b06795730423aa4717caOUT 0x28caa843cb577d892a8b6ec3f24aa682ed22be680 MATIC0.59065685519 4,869.790215106
0x1ea2d41b227a5f20948b8c39356ed3019444e2da113e1cd5c778d64bb4798db3Claim295108822022-06-13 8:44:5218 days 2 hrs ago0x5b2daa876cfbb4fe17a7b06795730423aa4717caOUT 0x57eb1b68f2ae0f77bf54f5ee6133be80d6381d1b0 MATIC0.09326439734 785.186035873
0xcb17b9e12c1378bf11b4e07735002a00a921dce92d108c46b9e1da664eb553c4Claim295108582022-06-13 8:44:0418 days 2 hrs ago0x5b2daa876cfbb4fe17a7b06795730423aa4717caOUT 0xe0ff071e9c2f7ca021dbc7e4630a8e92a90c92420 MATIC0.032717217814 596.452661014
0x47832ba6cfa0cc73097fbe75e859523a39c65e66a079997b80aaf64ccc64a14cDeposit From293885502022-06-10 8:39:3621 days 2 hrs ago0x5b2daa876cfbb4fe17a7b06795730423aa4717caOUT 0x28caa843cb577d892a8b6ec3f24aa682ed22be680 MATIC0.005672756476 33.461864794
0x641192c96882b0dd0e2bdca4d136ee1807ea87e64dfb94ff31841f5718ce3c7aClaim293885022022-06-10 8:37:5621 days 2 hrs ago0x5b2daa876cfbb4fe17a7b06795730423aa4717caOUT 0x28caa843cb577d892a8b6ec3f24aa682ed22be680 MATIC0.004058589703 33.461865808
0x2b1fa611fd0fa1484ecde81ac422a1258098f50430bed68b9ee17bde1bff76f2Claim293884902022-06-10 8:37:3221 days 2 hrs ago0x5b2daa876cfbb4fe17a7b06795730423aa4717caOUT 0x57eb1b68f2ae0f77bf54f5ee6133be80d6381d1b0 MATIC0.003998135043 33.660002047
0x78fe30abf830aa475ac714a5a7d0a48b069916b41a772b4787713da39d632468Claim293884702022-06-10 8:36:4821 days 2 hrs ago0x5b2daa876cfbb4fe17a7b06795730423aa4717caOUT 0xe0ff071e9c2f7ca021dbc7e4630a8e92a90c92420 MATIC0.001953929497 33.660002706
0xd27e4dc9b16752990f79a666097d3a6487c6c9470e038fa8ef4b0b6e5638e19aDeposit From293101722022-06-08 9:16:5223 days 1 hr ago0x5b2daa876cfbb4fe17a7b06795730423aa4717caOUT 0x28caa843cb577d892a8b6ec3f24aa682ed22be680 MATIC0.005594457005 33.00000003
0x9f95837ab9ad68e09bb53b7727ef7224c7e6974580ae6fa67be7959d7ba70ea8Claim293101482022-06-08 9:16:0423 days 1 hr ago0x5b2daa876cfbb4fe17a7b06795730423aa4717caOUT 0x28caa843cb577d892a8b6ec3f24aa682ed22be680 MATIC0.004002570003 33.000000031
0xd0aad8d4dca1e25ec1c7f7798e0c718cd89440e77ae821569d5c7b98182ef9c1Claim293101402022-06-08 9:15:4423 days 1 hr ago0x5b2daa876cfbb4fe17a7b06795730423aa4717caOUT 0x57eb1b68f2ae0f77bf54f5ee6133be80d6381d1b0 MATIC0.003919740004 33.00000004
0x2f1b51941b096db701229d387777d68fbe50cfbef932a470ca77cae1056adc2fClaim293101102022-06-08 9:14:4423 days 1 hr ago0x5b2daa876cfbb4fe17a7b06795730423aa4717caOUT 0xe0ff071e9c2f7ca021dbc7e4630a8e92a90c92420 MATIC0.001915617001 33.000000033
0xe56c697ad3591277745a3f8538cb3b739c76d5435ca5333fdb430a34ce31b465Deposit From292691932022-06-07 8:46:5724 days 2 hrs ago0x5b2daa876cfbb4fe17a7b06795730423aa4717caOUT 0x28caa843cb577d892a8b6ec3f24aa682ed22be680 MATIC0.005594457016 33.000000096
[ Download CSV Export 
Latest 1 internal transaction
Parent Txn Hash Block From To Value
0x4c415f1d7daec619d13928896e7223ebf1aba4c319593f8ef997ab29c07a04a8242200872022-01-27 9:10:05155 days 1 hr ago Polygon: Airdrop0x5b2daa876cfbb4fe17a7b06795730423aa4717ca0.1 MATIC
[ Download CSV Export 
Loading

Contract Name:
0 MATIC

Compiler Version
0

Optimization Enabled:
0 MATIC

Other Settings:
-NA-
Block Transaction Gas Used Reward
Age Block Fee Address BC Fee Address Voting Power Jailed Incoming
Block Uncle Number Difficulty Gas Used Reward
Loading
Loading
Make sure to use the "Vote Down" button for any spammy posts, and the "Vote Up" for interesting conversations.